sensor_id;sensor_type;location;lat;lon;timestamp;temperature;humidity
14585;DHT22;7379;51.506;11.876;2024-02-14T00:00:49;6.40;85.70
14585;DHT22;7379;51.506;11.876;2024-02-14T00:03:15;6.40;85.80
14585;DHT22;7379;51.506;11.876;2024-02-14T00:05:44;6.40;85.80
14585;DHT22;7379;51.506;11.876;2024-02-14T00:08:10;6.40;85.70
14585;DHT22;7379;51.506;11.876;2024-02-14T00:10:39;6.40;85.70
14585;DHT22;7379;51.506;11.876;2024-02-14T00:13:06;6.40;85.70
14585;DHT22;7379;51.506;11.876;2024-02-14T00:15:33;6.40;85.70
14585;DHT22;7379;51.506;11.876;2024-02-14T00:18:00;6.40;85.70
14585;DHT22;7379;51.506;11.876;2024-02-14T00:20:27;6.40;85.70
14585;DHT22;7379;51.506;11.876;2024-02-14T00:22:55;6.40;85.70
14585;DHT22;7379;51.506;11.876;2024-02-14T00:25:22;6.40;85.70
14585;DHT22;7379;51.506;11.876;2024-02-14T00:27:48;6.40;85.70
14585;DHT22;7379;51.506;11.876;2024-02-14T00:30:16;6.40;85.70
14585;DHT22;7379;51.506;11.876;2024-02-14T00:32:43;6.40;85.70
14585;DHT22;7379;51.506;11.876;2024-02-14T00:35:09;6.40;85.70
14585;DHT22;7379;51.506;11.876;2024-02-14T00:37:36;6.40;85.70
14585;DHT22;7379;51.506;11.876;2024-02-14T00:40:06;6.40;85.70
14585;DHT22;7379;51.506;11.876;2024-02-14T00:42:33;6.40;85.70
14585;DHT22;7379;51.506;11.876;2024-02-14T00:44:59;6.40;85.70
14585;DHT22;7379;51.506;11.876;2024-02-14T00:47:26;6.40;85.80
14585;DHT22;7379;51.506;11.876;2024-02-14T00:49:53;6.40;85.80
14585;DHT22;7379;51.506;11.876;2024-02-14T00:52:19;6.40;85.80
14585;DHT22;7379;51.506;11.876;2024-02-14T00:54:47;6.40;85.90
14585;DHT22;7379;51.506;11.876;2024-02-14T00:57:15;6.40;85.90
14585;DHT22;7379;51.506;11.876;2024-02-14T00:59:43;6.40;85.90
14585;DHT22;7379;51.506;11.876;2024-02-14T01:02:10;6.40;85.90
14585;DHT22;7379;51.506;11.876;2024-02-14T01:04:37;6.30;85.80
14585;DHT22;7379;51.506;11.876;2024-02-14T01:07:03;6.40;85.90
14585;DHT22;7379;51.506;11.876;2024-02-14T01:09:30;6.30;85.80
14585;DHT22;7379;51.506;11.876;2024-02-14T01:11:58;6.30;85.80
14585;DHT22;7379;51.506;11.876;2024-02-14T01:14:26;6.30;85.80
14585;DHT22;7379;51.506;11.876;2024-02-14T01:16:53;6.30;85.70
14585;DHT22;7379;51.506;11.876;2024-02-14T01:19:20;6.40;85.80
14585;DHT22;7379;51.506;11.876;2024-02-14T01:21:49;6.40;85.80
14585;DHT22;7379;51.506;11.876;2024-02-14T01:24:16;6.40;85.70
14585;DHT22;7379;51.506;11.876;2024-02-14T01:26:42;6.40;85.80
14585;DHT22;7379;51.506;11.876;2024-02-14T01:29:09;6.40;85.70
14585;DHT22;7379;51.506;11.876;2024-02-14T01:31:37;6.40;85.80
14585;DHT22;7379;51.506;11.876;2024-02-14T01:34:04;6.40;85.70
14585;DHT22;7379;51.506;11.876;2024-02-14T01:36:31;6.30;85.60
14585;DHT22;7379;51.506;11.876;2024-02-14T01:38:57;6.30;85.70
14585;DHT22;7379;51.506;11.876;2024-02-14T01:41:24;6.40;85.70
14585;DHT22;7379;51.506;11.876;2024-02-14T01:43:51;6.40;85.80
14585;DHT22;7379;51.506;11.876;2024-02-14T01:46:18;6.40;85.70
14585;DHT22;7379;51.506;11.876;2024-02-14T01:48:46;6.30;85.70
14585;DHT22;7379;51.506;11.876;2024-02-14T01:51:14;6.30;85.70
14585;DHT22;7379;51.506;11.876;2024-02-14T01:53:43;6.30;85.60
14585;DHT22;7379;51.506;11.876;2024-02-14T01:56:09;6.30;85.60
14585;DHT22;7379;51.506;11.876;2024-02-14T01:58:37;6.30;85.70
14585;DHT22;7379;51.506;11.876;2024-02-14T02:01:04;6.30;85.70
14585;DHT22;7379;51.506;11.876;2024-02-14T02:03:31;6.30;85.70
14585;DHT22;7379;51.506;11.876;2024-02-14T02:06:02;6.30;85.70
14585;DHT22;7379;51.506;11.876;2024-02-14T02:08:29;6.30;85.70
14585;DHT22;7379;51.506;11.876;2024-02-14T02:10:57;6.30;85.70
14585;DHT22;7379;51.506;11.876;2024-02-14T02:13:24;6.30;85.90
14585;DHT22;7379;51.506;11.876;2024-02-14T02:15:51;6.40;85.80
14585;DHT22;7379;51.506;11.876;2024-02-14T02:18:18;6.30;85.70
14585;DHT22;7379;51.506;11.876;2024-02-14T02:20:45;6.30;85.70
14585;DHT22;7379;51.506;11.876;2024-02-14T02:23:14;6.30;85.80
14585;DHT22;7379;51.506;11.876;2024-02-14T02:25:41;6.30;85.80
14585;DHT22;7379;51.506;11.876;2024-02-14T02:28:08;6.30;85.80
14585;DHT22;7379;51.506;11.876;2024-02-14T02:30:35;6.30;85.90
14585;DHT22;7379;51.506;11.876;2024-02-14T02:33:02;6.30;85.80
14585;DHT22;7379;51.506;11.876;2024-02-14T02:35:29;6.30;85.80
14585;DHT22;7379;51.506;11.876;2024-02-14T02:37:56;6.30;85.80
14585;DHT22;7379;51.506;11.876;2024-02-14T02:40:24;6.30;85.80
14585;DHT22;7379;51.506;11.876;2024-02-14T02:42:52;6.30;85.80
14585;DHT22;7379;51.506;11.876;2024-02-14T02:45:19;6.30;85.80
14585;DHT22;7379;51.506;11.876;2024-02-14T02:47:46;6.30;85.80
14585;DHT22;7379;51.506;11.876;2024-02-14T02:50:13;6.30;85.80
14585;DHT22;7379;51.506;11.876;2024-02-14T02:52:40;6.30;85.80
14585;DHT22;7379;51.506;11.876;2024-02-14T02:55:07;6.30;85.80
14585;DHT22;7379;51.506;11.876;2024-02-14T02:57:35;6.30;85.90
14585;DHT22;7379;51.506;11.876;2024-02-14T03:00:07;6.30;85.90
14585;DHT22;7379;51.506;11.876;2024-02-14T03:02:34;6.30;85.90
14585;DHT22;7379;51.506;11.876;2024-02-14T03:05:04;6.30;85.90
14585;DHT22;7379;51.506;11.876;2024-02-14T03:07:32;6.30;85.90
14585;DHT22;7379;51.506;11.876;2024-02-14T03:09:59;6.30;85.90
14585;DHT22;7379;51.506;11.876;2024-02-14T03:12:25;6.30;85.90
14585;DHT22;7379;51.506;11.876;2024-02-14T03:14:57;6.30;85.90
14585;DHT22;7379;51.506;11.876;2024-02-14T03:17:24;6.30;85.90
14585;DHT22;7379;51.506;11.876;2024-02-14T03:19:50;6.30;85.80
14585;DHT22;7379;51.506;11.876;2024-02-14T03:22:17;6.30;85.80
14585;DHT22;7379;51.506;11.876;2024-02-14T03:24:44;6.30;85.80
14585;DHT22;7379;51.506;11.876;2024-02-14T03:27:12;6.30;85.80
14585;DHT22;7379;51.506;11.876;2024-02-14T03:29:39;6.30;85.70
14585;DHT22;7379;51.506;11.876;2024-02-14T03:32:07;6.30;85.70
14585;DHT22;7379;51.506;11.876;2024-02-14T03:34:34;6.30;85.70
14585;DHT22;7379;51.506;11.876;2024-02-14T03:37:01;6.30;85.70
14585;DHT22;7379;51.506;11.876;2024-02-14T03:39:28;6.30;85.60
14585;DHT22;7379;51.506;11.876;2024-02-14T03:41:56;6.30;85.60
14585;DHT22;7379;51.506;11.876;2024-02-14T03:44:22;6.30;85.60
14585;DHT22;7379;51.506;11.876;2024-02-14T03:46:49;6.30;85.60
14585;DHT22;7379;51.506;11.876;2024-02-14T03:49:17;6.40;85.60
14585;DHT22;7379;51.506;11.876;2024-02-14T03:51:45;6.30;85.40
14585;DHT22;7379;51.506;11.876;2024-02-14T03:54:11;6.30;85.50
14585;DHT22;7379;51.506;11.876;2024-02-14T03:56:38;6.30;85.50
14585;DHT22;7379;51.506;11.876;2024-02-14T03:59:06;6.30;85.40
14585;DHT22;7379;51.506;11.876;2024-02-14T04:01:33;6.30;85.40
14585;DHT22;7379;51.506;11.876;2024-02-14T04:04:00;6.30;85.30
14585;DHT22;7379;51.506;11.876;2024-02-14T04:06:28;6.30;85.30
14585;DHT22;7379;51.506;11.876;2024-02-14T04:08:57;6.30;85.30
14585;DHT22;7379;51.506;11.876;2024-02-14T04:11:24;6.30;85.20
14585;DHT22;7379;51.506;11.876;2024-02-14T04:13:51;6.30;85.20
14585;DHT22;7379;51.506;11.876;2024-02-14T04:16:19;6.30;85.20
14585;DHT22;7379;51.506;11.876;2024-02-14T04:18:46;6.40;85.30
14585;DHT22;7379;51.506;11.876;2024-02-14T04:21:13;6.40;85.20
14585;DHT22;7379;51.506;11.876;2024-02-14T04:23:41;6.40;85.20
14585;DHT22;7379;51.506;11.876;2024-02-14T04:26:08;6.40;85.20
14585;DHT22;7379;51.506;11.876;2024-02-14T04:28:35;6.40;85.20
14585;DHT22;7379;51.506;11.876;2024-02-14T04:31:02;6.40;85.20
14585;DHT22;7379;51.506;11.876;2024-02-14T04:33:28;6.40;85.20
14585;DHT22;7379;51.506;11.876;2024-02-14T04:35:56;6.40;85.20
14585;DHT22;7379;51.506;11.876;2024-02-14T04:38:22;6.40;85.20
14585;DHT22;7379;51.506;11.876;2024-02-14T04:40:50;6.40;85.20
14585;DHT22;7379;51.506;11.876;2024-02-14T04:43:17;6.40;85.10
14585;DHT22;7379;51.506;11.876;2024-02-14T04:45:45;6.40;85.10
14585;DHT22;7379;51.506;11.876;2024-02-14T04:48:12;6.40;85.00
14585;DHT22;7379;51.506;11.876;2024-02-14T04:50:39;6.40;85.00
14585;DHT22;7379;51.506;11.876;2024-02-14T04:53:05;6.40;85.00
14585;DHT22;7379;51.506;11.876;2024-02-14T04:55:32;6.40;85.00
14585;DHT22;7379;51.506;11.876;2024-02-14T04:58:01;6.40;85.00
14585;DHT22;7379;51.506;11.876;2024-02-14T05:00:27;6.40;84.90
14585;DHT22;7379;51.506;11.876;2024-02-14T05:02:54;6.40;84.90
14585;DHT22;7379;51.506;11.876;2024-02-14T05:05:21;6.40;84.90
14585;DHT22;7379;51.506;11.876;2024-02-14T05:07:48;6.40;84.80
14585;DHT22;7379;51.506;11.876;2024-02-14T05:10:14;6.40;84.80
14585;DHT22;7379;51.506;11.876;2024-02-14T05:12:41;6.40;84.80
14585;DHT22;7379;51.506;11.876;2024-02-14T05:15:10;6.40;84.80
14585;DHT22;7379;51.506;11.876;2024-02-14T05:17:37;6.40;84.80
14585;DHT22;7379;51.506;11.876;2024-02-14T05:20:05;6.40;84.70
14585;DHT22;7379;51.506;11.876;2024-02-14T05:22:35;6.50;84.70
14585;DHT22;7379;51.506;11.876;2024-02-14T05:25:02;6.50;84.60
14585;DHT22;7379;51.506;11.876;2024-02-14T05:27:29;6.50;84.60
14585;DHT22;7379;51.506;11.876;2024-02-14T05:29:56;6.50;84.60
14585;DHT22;7379;51.506;11.876;2024-02-14T05:32:24;6.50;84.50
14585;DHT22;7379;51.506;11.876;2024-02-14T05:34:51;6.50;84.50
14585;DHT22;7379;51.506;11.876;2024-02-14T05:37:18;6.50;84.50
14585;DHT22;7379;51.506;11.876;2024-02-14T05:39:45;6.50;84.60
14585;DHT22;7379;51.506;11.876;2024-02-14T05:42:11;6.50;84.60
14585;DHT22;7379;51.506;11.876;2024-02-14T05:44:38;6.50;84.60
14585;DHT22;7379;51.506;11.876;2024-02-14T05:47:06;6.50;84.60
14585;DHT22;7379;51.506;11.876;2024-02-14T05:49:34;6.50;84.60
14585;DHT22;7379;51.506;11.876;2024-02-14T05:52:00;6.50;84.70
14585;DHT22;7379;51.506;11.876;2024-02-14T05:54:27;6.50;84.60
14585;DHT22;7379;51.506;11.876;2024-02-14T05:56:54;6.50;84.50
14585;DHT22;7379;51.506;11.876;2024-02-14T05:59:23;6.50;84.40
14585;DHT22;7379;51.506;11.876;2024-02-14T06:01:49;6.50;84.40
14585;DHT22;7379;51.506;11.876;2024-02-14T06:04:16;6.50;84.40
14585;DHT22;7379;51.506;11.876;2024-02-14T06:06:44;6.50;84.50
14585;DHT22;7379;51.506;11.876;2024-02-14T06:09:14;6.50;84.40
14585;DHT22;7379;51.506;11.876;2024-02-14T06:11:40;6.50;84.50
14585;DHT22;7379;51.506;11.876;2024-02-14T06:14:09;6.50;84.50
14585;DHT22;7379;51.506;11.876;2024-02-14T06:16:35;6.50;84.50
14585;DHT22;7379;51.506;11.876;2024-02-14T06:19:02;6.50;84.50
14585;DHT22;7379;51.506;11.876;2024-02-14T06:21:30;6.50;84.50
14585;DHT22;7379;51.506;11.876;2024-02-14T06:23:59;6.50;84.50
14585;DHT22;7379;51.506;11.876;2024-02-14T06:26:26;6.50;84.50
14585;DHT22;7379;51.506;11.876;2024-02-14T06:28:53;6.50;84.40
14585;DHT22;7379;51.506;11.876;2024-02-14T06:31:21;6.50;84.60
14585;DHT22;7379;51.506;11.876;2024-02-14T06:33:48;6.50;84.50
14585;DHT22;7379;51.506;11.876;2024-02-14T06:36:15;6.50;84.60
14585;DHT22;7379;51.506;11.876;2024-02-14T06:38:42;6.50;84.60
14585;DHT22;7379;51.506;11.876;2024-02-14T06:41:12;6.50;84.60
14585;DHT22;7379;51.506;11.876;2024-02-14T06:43:39;6.50;84.60
14585;DHT22;7379;51.506;11.876;2024-02-14T06:46:06;6.50;84.70
14585;DHT22;7379;51.506;11.876;2024-02-14T06:48:33;6.50;84.70
14585;DHT22;7379;51.506;11.876;2024-02-14T06:50:59;6.50;84.70
14585;DHT22;7379;51.506;11.876;2024-02-14T06:53:26;6.50;84.70
14585;DHT22;7379;51.506;11.876;2024-02-14T06:55:53;6.50;84.70
14585;DHT22;7379;51.506;11.876;2024-02-14T06:58:21;6.50;84.70
14585;DHT22;7379;51.506;11.876;2024-02-14T07:00:48;6.50;84.70
14585;DHT22;7379;51.506;11.876;2024-02-14T07:03:15;6.50;84.70
14585;DHT22;7379;51.506;11.876;2024-02-14T07:05:42;6.50;84.70
14585;DHT22;7379;51.506;11.876;2024-02-14T07:08:09;6.50;84.60
14585;DHT22;7379;51.506;11.876;2024-02-14T07:10:35;6.50;84.70
14585;DHT22;7379;51.506;11.876;2024-02-14T07:13:02;6.50;84.70
14585;DHT22;7379;51.506;11.876;2024-02-14T07:15:31;6.60;85.50
14585;DHT22;7379;51.506;11.876;2024-02-14T07:17:57;6.60;84.70
14585;DHT22;7379;51.506;11.876;2024-02-14T07:20:24;6.60;84.60
14585;DHT22;7379;51.506;11.876;2024-02-14T07:22:52;6.60;84.60
14585;DHT22;7379;51.506;11.876;2024-02-14T07:25:20;6.60;84.60
14585;DHT22;7379;51.506;11.876;2024-02-14T07:27:47;6.60;84.50
14585;DHT22;7379;51.506;11.876;2024-02-14T07:30:15;6.60;84.40
14585;DHT22;7379;51.506;11.876;2024-02-14T07:32:43;6.60;84.30
14585;DHT22;7379;51.506;11.876;2024-02-14T07:35:10;6.60;84.30
14585;DHT22;7379;51.506;11.876;2024-02-14T07:37:38;6.60;84.20
14585;DHT22;7379;51.506;11.876;2024-02-14T07:40:06;6.70;84.30
14585;DHT22;7379;51.506;11.876;2024-02-14T07:42:33;6.60;84.20
14585;DHT22;7379;51.506;11.876;2024-02-14T07:45:00;6.70;84.30
14585;DHT22;7379;51.506;11.876;2024-02-14T07:47:28;6.70;84.20
14585;DHT22;7379;51.506;11.876;2024-02-14T07:49:57;6.70;84.30
14585;DHT22;7379;51.506;11.876;2024-02-14T07:52:23;6.70;84.30
14585;DHT22;7379;51.506;11.876;2024-02-14T07:54:52;6.70;84.30
14585;DHT22;7379;51.506;11.876;2024-02-14T07:57:19;6.70;84.40
14585;DHT22;7379;51.506;11.876;2024-02-14T07:59:45;6.70;84.30
14585;DHT22;7379;51.506;11.876;2024-02-14T08:02:12;6.70;84.40
14585;DHT22;7379;51.506;11.876;2024-02-14T08:04:39;6.70;84.40
14585;DHT22;7379;51.506;11.876;2024-02-14T08:07:07;6.70;84.40
14585;DHT22;7379;51.506;11.876;2024-02-14T08:09:35;6.70;84.40
14585;DHT22;7379;51.506;11.876;2024-02-14T08:12:02;6.70;84.40
14585;DHT22;7379;51.506;11.876;2024-02-14T08:14:29;6.70;84.50
14585;DHT22;7379;51.506;11.876;2024-02-14T08:16:55;6.70;84.50
14585;DHT22;7379;51.506;11.876;2024-02-14T08:19:22;6.70;84.50
14585;DHT22;7379;51.506;11.876;2024-02-14T08:21:49;6.80;84.60
14585;DHT22;7379;51.506;11.876;2024-02-14T08:24:17;6.80;84.70
14585;DHT22;7379;51.506;11.876;2024-02-14T08:26:44;6.80;84.70
14585;DHT22;7379;51.506;11.876;2024-02-14T08:29:10;6.80;84.70
14585;DHT22;7379;51.506;11.876;2024-02-14T08:31:39;6.90;84.80
14585;DHT22;7379;51.506;11.876;2024-02-14T08:34:06;6.90;84.70
14585;DHT22;7379;51.506;11.876;2024-02-14T08:36:33;6.90;84.70
14585;DHT22;7379;51.506;11.876;2024-02-14T08:39:06;6.90;84.70
14585;DHT22;7379;51.506;11.876;2024-02-14T08:41:34;7.00;84.90
14585;DHT22;7379;51.506;11.876;2024-02-14T08:44:01;7.00;84.80
14585;DHT22;7379;51.506;11.876;2024-02-14T08:46:28;7.00;84.80
14585;DHT22;7379;51.506;11.876;2024-02-14T08:48:55;7.10;84.90
14585;DHT22;7379;51.506;11.876;2024-02-14T08:51:21;7.10;84.90
14585;DHT22;7379;51.506;11.876;2024-02-14T08:53:49;7.10;84.90
14585;DHT22;7379;51.506;11.876;2024-02-14T08:56:20;7.10;85.00
14585;DHT22;7379;51.506;11.876;2024-02-14T08:58:48;7.00;84.80
14585;DHT22;7379;51.506;11.876;2024-02-14T09:01:15;7.10;85.00
14585;DHT22;7379;51.506;11.876;2024-02-14T09:03:42;7.10;84.90
14585;DHT22;7379;51.506;11.876;2024-02-14T09:06:12;7.10;85.10
14585;DHT22;7379;51.506;11.876;2024-02-14T09:08:39;7.10;85.30
14585;DHT22;7379;51.506;11.876;2024-02-14T09:11:06;7.20;85.20
14585;DHT22;7379;51.506;11.876;2024-02-14T09:13:33;7.20;85.30
14585;DHT22;7379;51.506;11.876;2024-02-14T09:16:01;7.20;85.30
14585;DHT22;7379;51.506;11.876;2024-02-14T09:18:28;7.30;85.10
14585;DHT22;7379;51.506;11.876;2024-02-14T09:20:57;7.30;84.90
14585;DHT22;7379;51.506;11.876;2024-02-14T09:23:24;7.40;85.00
14585;DHT22;7379;51.506;11.876;2024-02-14T09:25:50;7.40;85.20
14585;DHT22;7379;51.506;11.876;2024-02-14T09:28:17;7.40;85.00
14585;DHT22;7379;51.506;11.876;2024-02-14T09:30:44;7.50;85.00
14585;DHT22;7379;51.506;11.876;2024-02-14T09:33:12;7.50;84.90
14585;DHT22;7379;51.506;11.876;2024-02-14T09:35:39;7.50;84.80
14585;DHT22;7379;51.506;11.876;2024-02-14T09:38:10;7.50;84.80
14585;DHT22;7379;51.506;11.876;2024-02-14T09:40:38;7.50;84.90
14585;DHT22;7379;51.506;11.876;2024-02-14T09:43:09;7.50;84.80
14585;DHT22;7379;51.506;11.876;2024-02-14T09:45:42;7.60;85.10
14585;DHT22;7379;51.506;11.876;2024-02-14T09:48:10;7.50;85.70
14585;DHT22;7379;51.506;11.876;2024-02-14T09:50:40;7.50;86.20
14585;DHT22;7379;51.506;11.876;2024-02-14T09:53:07;7.50;86.60
14585;DHT22;7379;51.506;11.876;2024-02-14T09:55:35;7.50;86.80
14585;DHT22;7379;51.506;11.876;2024-02-14T09:58:05;7.50;86.90
14585;DHT22;7379;51.506;11.876;2024-02-14T10:00:32;7.50;87.00
14585;DHT22;7379;51.506;11.876;2024-02-14T10:02:59;7.50;87.00
14585;DHT22;7379;51.506;11.876;2024-02-14T10:05:26;7.50;86.80
14585;DHT22;7379;51.506;11.876;2024-02-14T10:07:56;7.40;87.00
14585;DHT22;7379;51.506;11.876;2024-02-14T10:10:23;7.40;87.60
14585;DHT22;7379;51.506;11.876;2024-02-14T10:12:50;7.40;87.30
14585;DHT22;7379;51.506;11.876;2024-02-14T10:15:17;7.40;87.20
14585;DHT22;7379;51.506;11.876;2024-02-14T10:17:43;7.40;87.20
14585;DHT22;7379;51.506;11.876;2024-02-14T10:20:11;7.40;87.40
14585;DHT22;7379;51.506;11.876;2024-02-14T10:22:38;7.40;88.20
14585;DHT22;7379;51.506;11.876;2024-02-14T10:25:07;7.40;88.10
14585;DHT22;7379;51.506;11.876;2024-02-14T10:27:36;7.40;88.50
14585;DHT22;7379;51.506;11.876;2024-02-14T10:30:05;7.50;88.80
14585;DHT22;7379;51.506;11.876;2024-02-14T10:32:34;7.50;88.80
14585;DHT22;7379;51.506;11.876;2024-02-14T10:35:04;7.50;88.70
14585;DHT22;7379;51.506;11.876;2024-02-14T10:37:31;7.50;88.50
14585;DHT22;7379;51.506;11.876;2024-02-14T10:40:01;7.60;88.40
14585;DHT22;7379;51.506;11.876;2024-02-14T10:42:29;7.60;88.30
14585;DHT22;7379;51.506;11.876;2024-02-14T10:44:56;7.70;88.00
14585;DHT22;7379;51.506;11.876;2024-02-14T10:47:28;7.70;88.60
14585;DHT22;7379;51.506;11.876;2024-02-14T10:49:59;7.70;87.30
14585;DHT22;7379;51.506;11.876;2024-02-14T10:52:29;7.70;87.50
14585;DHT22;7379;51.506;11.876;2024-02-14T10:54:57;7.70;87.50
14585;DHT22;7379;51.506;11.876;2024-02-14T10:57:26;7.70;87.60
14585;DHT22;7379;51.506;11.876;2024-02-14T10:59:57;7.70;87.50
14585;DHT22;7379;51.506;11.876;2024-02-14T11:02:24;7.70;87.60
14585;DHT22;7379;51.506;11.876;2024-02-14T11:04:52;7.70;87.80
14585;DHT22;7379;51.506;11.876;2024-02-14T11:07:20;7.70;87.80
14585;DHT22;7379;51.506;11.876;2024-02-14T11:09:48;7.70;88.00
14585;DHT22;7379;51.506;11.876;2024-02-14T11:12:15;7.80;87.90
14585;DHT22;7379;51.506;11.876;2024-02-14T11:14:43;7.80;88.00
14585;DHT22;7379;51.506;11.876;2024-02-14T11:17:12;7.80;88.00
14585;DHT22;7379;51.506;11.876;2024-02-14T11:19:39;7.90;88.00
14585;DHT22;7379;51.506;11.876;2024-02-14T11:22:12;7.90;87.80
14585;DHT22;7379;51.506;11.876;2024-02-14T11:24:39;7.90;88.00
14585;DHT22;7379;51.506;11.876;2024-02-14T11:27:10;7.90;88.20
14585;DHT22;7379;51.506;11.876;2024-02-14T11:29:38;8.00;88.20
14585;DHT22;7379;51.506;11.876;2024-02-14T11:32:06;8.00;88.00
14585;DHT22;7379;51.506;11.876;2024-02-14T11:34:35;8.10;88.10
14585;DHT22;7379;51.506;11.876;2024-02-14T11:37:02;8.10;88.20
14585;DHT22;7379;51.506;11.876;2024-02-14T11:39:29;8.20;87.70
14585;DHT22;7379;51.506;11.876;2024-02-14T11:41:58;8.20;87.50
14585;DHT22;7379;51.506;11.876;2024-02-14T11:44:25;8.20;87.80
14585;DHT22;7379;51.506;11.876;2024-02-14T11:46:52;8.20;87.40
14585;DHT22;7379;51.506;11.876;2024-02-14T11:49:19;8.20;87.40
14585;DHT22;7379;51.506;11.876;2024-02-14T11:51:47;8.30;87.60
14585;DHT22;7379;51.506;11.876;2024-02-14T11:54:14;8.30;87.50
14585;DHT22;7379;51.506;11.876;2024-02-14T11:56:41;8.40;87.60
14585;DHT22;7379;51.506;11.876;2024-02-14T11:59:08;8.30;87.50
14585;DHT22;7379;51.506;11.876;2024-02-14T12:01:37;8.30;87.60
14585;DHT22;7379;51.506;11.876;2024-02-14T12:04:05;8.30;87.80
14585;DHT22;7379;51.506;11.876;2024-02-14T12:06:34;8.30;87.80
14585;DHT22;7379;51.506;11.876;2024-02-14T12:09:03;8.40;87.70
14585;DHT22;7379;51.506;11.876;2024-02-14T12:11:31;8.40;87.60
14585;DHT22;7379;51.506;11.876;2024-02-14T12:14:01;8.40;87.80
14585;DHT22;7379;51.506;11.876;2024-02-14T12:16:28;8.40;88.00
14585;DHT22;7379;51.506;11.876;2024-02-14T12:19:03;8.50;87.80
14585;DHT22;7379;51.506;11.876;2024-02-14T12:21:33;8.60;87.90
14585;DHT22;7379;51.506;11.876;2024-02-14T12:24:01;8.60;87.70
14585;DHT22;7379;51.506;11.876;2024-02-14T12:26:30;8.70;87.30
14585;DHT22;7379;51.506;11.876;2024-02-14T12:28:57;8.70;87.60
14585;DHT22;7379;51.506;11.876;2024-02-14T12:31:24;8.70;87.80
14585;DHT22;7379;51.506;11.876;2024-02-14T12:33:53;8.70;87.90
14585;DHT22;7379;51.506;11.876;2024-02-14T12:36:21;8.70;87.60
14585;DHT22;7379;51.506;11.876;2024-02-14T12:38:47;8.70;87.70
14585;DHT22;7379;51.506;11.876;2024-02-14T12:41:14;8.70;87.80
14585;DHT22;7379;51.506;11.876;2024-02-14T12:43:43;8.80;87.30
14585;DHT22;7379;51.506;11.876;2024-02-14T12:46:10;8.90;87.50
14585;DHT22;7379;51.506;11.876;2024-02-14T12:48:36;8.90;87.30
14585;DHT22;7379;51.506;11.876;2024-02-14T12:51:02;8.90;87.20
14585;DHT22;7379;51.506;11.876;2024-02-14T12:53:30;8.90;87.30
14585;DHT22;7379;51.506;11.876;2024-02-14T12:55:57;8.90;87.40
14585;DHT22;7379;51.506;11.876;2024-02-14T12:58:24;8.90;87.40
14585;DHT22;7379;51.506;11.876;2024-02-14T13:00:52;8.90;87.50
14585;DHT22;7379;51.506;11.876;2024-02-14T13:03:19;8.90;87.60
14585;DHT22;7379;51.506;11.876;2024-02-14T13:05:46;8.80;87.50
14585;DHT22;7379;51.506;11.876;2024-02-14T13:08:13;8.80;87.90
14585;DHT22;7379;51.506;11.876;2024-02-14T13:10:41;8.80;88.10
14585;DHT22;7379;51.506;11.876;2024-02-14T13:13:08;8.80;88.20
14585;DHT22;7379;51.506;11.876;2024-02-14T13:15:34;8.80;88.20
14585;DHT22;7379;51.506;11.876;2024-02-14T13:18:04;8.80;88.00
14585;DHT22;7379;51.506;11.876;2024-02-14T13:20:30;8.80;88.30
14585;DHT22;7379;51.506;11.876;2024-02-14T13:22:57;8.80;88.40
14585;DHT22;7379;51.506;11.876;2024-02-14T13:25:24;8.80;88.40
14585;DHT22;7379;51.506;11.876;2024-02-14T13:27:51;8.90;88.50
14585;DHT22;7379;51.506;11.876;2024-02-14T13:30:19;8.90;88.30
14585;DHT22;7379;51.506;11.876;2024-02-14T13:32:47;8.90;88.20
14585;DHT22;7379;51.506;11.876;2024-02-14T13:35:15;9.00;87.90
14585;DHT22;7379;51.506;11.876;2024-02-14T13:37:42;9.00;88.10
14585;DHT22;7379;51.506;11.876;2024-02-14T13:40:10;9.10;87.80
14585;DHT22;7379;51.506;11.876;2024-02-14T13:42:37;9.10;87.90
14585;DHT22;7379;51.506;11.876;2024-02-14T13:45:04;9.10;87.70
14585;DHT22;7379;51.506;11.876;2024-02-14T13:47:35;9.20;87.80
14585;DHT22;7379;51.506;11.876;2024-02-14T13:50:05;9.10;87.90
14585;DHT22;7379;51.506;11.876;2024-02-14T13:52:33;9.10;88.10
14585;DHT22;7379;51.506;11.876;2024-02-14T13:55:01;9.10;87.80
14585;DHT22;7379;51.506;11.876;2024-02-14T13:57:28;9.10;87.80
14585;DHT22;7379;51.506;11.876;2024-02-14T13:59:55;9.10;88.00
14585;DHT22;7379;51.506;11.876;2024-02-14T14:02:22;9.10;88.00
14585;DHT22;7379;51.506;11.876;2024-02-14T14:04:49;9.10;88.20
14585;DHT22;7379;51.506;11.876;2024-02-14T14:07:18;9.20;88.20
14585;DHT22;7379;51.506;11.876;2024-02-14T14:09:46;9.20;88.10
14585;DHT22;7379;51.506;11.876;2024-02-14T14:12:13;9.10;88.30
14585;DHT22;7379;51.506;11.876;2024-02-14T14:14:39;9.10;88.60
14585;DHT22;7379;51.506;11.876;2024-02-14T14:17:06;9.10;88.80
14585;DHT22;7379;51.506;11.876;2024-02-14T14:19:33;9.10;89.00
14585;DHT22;7379;51.506;11.876;2024-02-14T14:22:00;9.10;89.00
14585;DHT22;7379;51.506;11.876;2024-02-14T14:24:26;9.10;89.00
14585;DHT22;7379;51.506;11.876;2024-02-14T14:26:57;9.20;88.50
14585;DHT22;7379;51.506;11.876;2024-02-14T14:29:24;9.20;88.30
14585;DHT22;7379;51.506;11.876;2024-02-14T14:31:51;9.20;88.00
14585;DHT22;7379;51.506;11.876;2024-02-14T14:34:18;9.20;87.70
14585;DHT22;7379;51.506;11.876;2024-02-14T14:36:45;9.20;88.00
14585;DHT22;7379;51.506;11.876;2024-02-14T14:39:12;9.20;88.00
14585;DHT22;7379;51.506;11.876;2024-02-14T14:41:38;9.20;87.70
14585;DHT22;7379;51.506;11.876;2024-02-14T14:44:08;9.30;87.90
14585;DHT22;7379;51.506;11.876;2024-02-14T14:46:35;9.20;87.90
14585;DHT22;7379;51.506;11.876;2024-02-14T14:49:07;9.20;88.30
14585;DHT22;7379;51.506;11.876;2024-02-14T14:51:34;9.20;88.10
14585;DHT22;7379;51.506;11.876;2024-02-14T14:54:01;9.20;88.30
14585;DHT22;7379;51.506;11.876;2024-02-14T14:56:27;9.20;88.30
14585;DHT22;7379;51.506;11.876;2024-02-14T14:58:54;9.20;88.30
14585;DHT22;7379;51.506;11.876;2024-02-14T15:01:23;9.20;88.20
14585;DHT22;7379;51.506;11.876;2024-02-14T15:03:50;9.30;88.60
14585;DHT22;7379;51.506;11.876;2024-02-14T15:06:18;9.30;88.40
14585;DHT22;7379;51.506;11.876;2024-02-14T15:08:44;9.30;88.10
14585;DHT22;7379;51.506;11.876;2024-02-14T15:11:13;9.20;88.30
14585;DHT22;7379;51.506;11.876;2024-02-14T15:13:42;9.20;88.60
14585;DHT22;7379;51.506;11.876;2024-02-14T15:16:09;9.20;88.80
14585;DHT22;7379;51.506;11.876;2024-02-14T15:18:37;9.20;88.90
14585;DHT22;7379;51.506;11.876;2024-02-14T15:21:05;9.20;88.80
14585;DHT22;7379;51.506;11.876;2024-02-14T15:23:32;9.20;88.80
14585;DHT22;7379;51.506;11.876;2024-02-14T15:25:59;9.10;88.80
14585;DHT22;7379;51.506;11.876;2024-02-14T15:28:29;9.10;89.20
14585;DHT22;7379;51.506;11.876;2024-02-14T15:30:57;9.10;89.20
14585;DHT22;7379;51.506;11.876;2024-02-14T15:33:42;9.10;88.90
14585;DHT22;7379;51.506;11.876;2024-02-14T15:36:10;9.20;89.00
14585;DHT22;7379;51.506;11.876;2024-02-14T15:38:38;9.10;89.00
14585;DHT22;7379;51.506;11.876;2024-02-14T15:41:05;9.10;88.90
14585;DHT22;7379;51.506;11.876;2024-02-14T15:43:32;9.20;89.00
14585;DHT22;7379;51.506;11.876;2024-02-14T15:45:59;9.10;88.90